sensor_id;sensor_type;location;lat;lon;timestamp;pressure;altitude;pressure_sealevel;temperature;humidity
81997;BME280;71500;50.806;8.774;2023-12-29T00:01:22;99338.25;;;7.91;73.66
81997;BME280;71500;50.806;8.774;2023-12-29T00:03:54;99330.67;;;7.89;73.74
81997;BME280;71500;50.806;8.774;2023-12-29T00:06:26;99321.73;;;7.85;73.87
81997;BME280;71500;50.806;8.774;2023-12-29T00:08:57;99324.14;;;7.83;73.92
81997;BME280;71500;50.806;8.774;2023-12-29T00:11:29;99323.14;;;7.80;74.10
81997;BME280;71500;50.806;8.774;2023-12-29T00:14:00;99316.73;;;7.81;74.07
81997;BME280;71500;50.806;8.774;2023-12-29T00:16:31;99310.05;;;7.78;74.19
81997;BME280;71500;50.806;8.774;2023-12-29T00:19:03;99312.73;;;7.77;74.37
81997;BME280;71500;50.806;8.774;2023-12-29T00:21:35;99305.54;;;7.77;74.52
81997;BME280;71500;50.806;8.774;2023-12-29T00:24:07;99301.78;;;7.75;74.57
81997;BME280;71500;50.806;8.774;2023-12-29T00:26:39;99305.16;;;7.75;74.75
81997;BME280;71500;50.806;8.774;2023-12-29T00:29:10;99296.34;;;7.73;74.68
81997;BME280;71500;50.806;8.774;2023-12-29T00:31:41;99299.86;;;7.71;74.73
81997;BME280;71500;50.806;8.774;2023-12-29T00:34:13;99304.29;;;7.69;74.76
81997;BME280;71500;50.806;8.774;2023-12-29T00:36:44;99302.58;;;7.66;74.75
81997;BME280;71500;50.806;8.774;2023-12-29T00:39:16;99300.37;;;7.63;74.82
81997;BME280;71500;50.806;8.774;2023-12-29T00:41:47;99305.80;;;7.62;74.82
81997;BME280;71500;50.806;8.774;2023-12-29T00:44:18;99306.21;;;7.59;74.74
81997;BME280;71500;50.806;8.774;2023-12-29T00:46:50;99307.67;;;7.60;74.73
81997;BME280;71500;50.806;8.774;2023-12-29T00:49:21;99308.20;;;7.62;74.69
81997;BME280;71500;50.806;8.774;2023-12-29T00:51:53;99302.61;;;7.64;74.69
81997;BME280;71500;50.806;8.774;2023-12-29T00:54:25;99306.03;;;7.65;74.69
81997;BME280;71500;50.806;8.774;2023-12-29T00:56:59;99299.06;;;7.66;74.74
81997;BME280;71500;50.806;8.774;2023-12-29T00:59:30;99297.77;;;7.67;74.67
81997;BME280;71500;50.806;8.774;2023-12-29T01:02:02;99300.80;;;7.66;74.64
81997;BME280;71500;50.806;8.774;2023-12-29T01:04:34;99302.89;;;7.66;74.50
81997;BME280;71500;50.806;8.774;2023-12-29T01:07:07;99306.79;;;7.64;74.51
81997;BME280;71500;50.806;8.774;2023-12-29T01:09:40;99304.27;;;7.63;74.52
81997;BME280;71500;50.806;8.774;2023-12-29T01:12:12;99304.32;;;7.62;74.32
81997;BME280;71500;50.806;8.774;2023-12-29T01:14:45;99303.27;;;7.66;74.36
81997;BME280;71500;50.806;8.774;2023-12-29T01:17:16;99299.59;;;7.68;74.19
81997;BME280;71500;50.806;8.774;2023-12-29T01:19:47;99295.89;;;7.70;74.00
81997;BME280;71500;50.806;8.774;2023-12-29T01:22:19;99291.14;;;7.72;73.82
81997;BME280;71500;50.806;8.774;2023-12-29T01:24:59;99288.27;;;7.76;73.85
81997;BME280;71500;50.806;8.774;2023-12-29T01:27:31;99284.09;;;7.77;73.66
81997;BME280;71500;50.806;8.774;2023-12-29T01:30:04;99288.52;;;7.83;73.46
81997;BME280;71500;50.806;8.774;2023-12-29T01:32:37;99276.29;;;7.82;73.22
81997;BME280;71500;50.806;8.774;2023-12-29T01:35:09;99270.88;;;7.83;73.22
81997;BME280;71500;50.806;8.774;2023-12-29T01:37:41;99261.61;;;7.84;73.00
81997;BME280;71500;50.806;8.774;2023-12-29T01:40:15;99258.06;;;7.84;72.74
81997;BME280;71500;50.806;8.774;2023-12-29T01:42:47;99258.52;;;7.85;72.70
81997;BME280;71500;50.806;8.774;2023-12-29T01:45:23;99250.61;;;7.89;72.62
81997;BME280;71500;50.806;8.774;2023-12-29T01:47:56;99255.52;;;7.91;72.45
81997;BME280;71500;50.806;8.774;2023-12-29T01:50:29;99256.78;;;7.93;72.54
81997;BME280;71500;50.806;8.774;2023-12-29T01:53:02;99253.09;;;7.95;72.34
81997;BME280;71500;50.806;8.774;2023-12-29T01:55:34;99253.23;;;7.97;72.23
81997;BME280;71500;50.806;8.774;2023-12-29T01:58:06;99245.88;;;7.98;72.13
81997;BME280;71500;50.806;8.774;2023-12-29T02:00:38;99235.20;;;7.99;71.90
81997;BME280;71500;50.806;8.774;2023-12-29T02:03:10;99235.52;;;7.99;71.82
81997;BME280;71500;50.806;8.774;2023-12-29T02:05:43;99238.67;;;8.00;71.94
81997;BME280;71500;50.806;8.774;2023-12-29T02:08:17;99245.80;;;7.99;71.94
81997;BME280;71500;50.806;8.774;2023-12-29T02:10:49;99241.70;;;7.98;71.85
81997;BME280;71500;50.806;8.774;2023-12-29T02:13:21;99241.80;;;7.98;71.81
81997;BME280;71500;50.806;8.774;2023-12-29T02:15:54;99239.61;;;8.01;71.63
81997;BME280;71500;50.806;8.774;2023-12-29T02:18:29;99235.02;;;8.03;71.61
81997;BME280;71500;50.806;8.774;2023-12-29T02:21:01;99230.98;;;8.05;71.51
81997;BME280;71500;50.806;8.774;2023-12-29T02:23:34;99236.66;;;8.07;71.49
81997;BME280;71500;50.806;8.774;2023-12-29T02:26:10;99234.48;;;8.07;71.58
81997;BME280;71500;50.806;8.774;2023-12-29T02:28:46;99236.13;;;8.09;71.42
81997;BME280;71500;50.806;8.774;2023-12-29T02:31:25;99233.54;;;8.08;71.34
81997;BME280;71500;50.806;8.774;2023-12-29T02:34:01;99232.98;;;8.06;71.39
81997;BME280;71500;50.806;8.774;2023-12-29T02:36:37;99226.89;;;8.05;71.48
81997;BME280;71500;50.806;8.774;2023-12-29T02:39:13;99228.13;;;8.03;71.45
81997;BME280;71500;50.806;8.774;2023-12-29T02:41:45;99227.08;;;8.01;71.53
81997;BME280;71500;50.806;8.774;2023-12-29T02:44:16;99221.66;;;7.98;71.51
81997;BME280;71500;50.806;8.774;2023-12-29T02:46:48;99224.54;;;7.96;71.50
81997;BME280;71500;50.806;8.774;2023-12-29T02:49:19;99227.66;;;7.94;71.54
81997;BME280;71500;50.806;8.774;2023-12-29T02:51:51;99230.46;;;7.96;71.53
81997;BME280;71500;50.806;8.774;2023-12-29T02:54:23;99237.16;;;7.97;71.50
81997;BME280;71500;50.806;8.774;2023-12-29T02:56:54;99232.79;;;7.98;71.47
81997;BME280;71500;50.806;8.774;2023-12-29T02:59:26;99232.04;;;7.99;71.36
81997;BME280;71500;50.806;8.774;2023-12-29T03:01:57;99234.36;;;8.00;71.48
81997;BME280;71500;50.806;8.774;2023-12-29T03:04:30;99239.17;;;8.02;71.47
81997;BME280;71500;50.806;8.774;2023-12-29T03:07:01;99242.90;;;8.04;71.54
81997;BME280;71500;50.806;8.774;2023-12-29T03:09:33;99232.69;;;8.06;71.44
81997;BME280;71500;50.806;8.774;2023-12-29T03:12:06;99232.30;;;8.08;71.45
81997;BME280;71500;50.806;8.774;2023-12-29T03:14:37;99227.05;;;8.09;71.28
81997;BME280;71500;50.806;8.774;2023-12-29T03:17:09;99221.09;;;8.11;71.22
81997;BME280;71500;50.806;8.774;2023-12-29T03:19:41;99213.10;;;8.15;71.22
81997;BME280;71500;50.806;8.774;2023-12-29T03:22:13;99209.30;;;8.20;71.09
81997;BME280;71500;50.806;8.774;2023-12-29T03:24:44;99203.70;;;8.23;71.06
81997;BME280;71500;50.806;8.774;2023-12-29T03:27:16;99205.71;;;8.27;70.87
81997;BME280;71500;50.806;8.774;2023-12-29T03:29:47;99209.83;;;8.32;70.90
81997;BME280;71500;50.806;8.774;2023-12-29T03:32:19;99198.70;;;8.32;70.89
81997;BME280;71500;50.806;8.774;2023-12-29T03:34:50;99193.56;;;8.34;70.68
81997;BME280;71500;50.806;8.774;2023-12-29T03:37:23;99188.54;;;8.35;70.56
81997;BME280;71500;50.806;8.774;2023-12-29T03:39:54;99195.88;;;8.36;70.57
81997;BME280;71500;50.806;8.774;2023-12-29T03:42:26;99193.95;;;8.36;70.45
81997;BME280;71500;50.806;8.774;2023-12-29T03:44:57;99197.77;;;8.36;70.49
81997;BME280;71500;50.806;8.774;2023-12-29T03:47:29;99190.50;;;8.37;70.35
81997;BME280;71500;50.806;8.774;2023-12-29T03:50:02;99196.87;;;8.37;70.35
81997;BME280;71500;50.806;8.774;2023-12-29T03:52:34;99190.14;;;8.39;70.39
81997;BME280;71500;50.806;8.774;2023-12-29T03:55:07;99187.50;;;8.45;70.30
81997;BME280;71500;50.806;8.774;2023-12-29T03:57:38;99186.64;;;8.48;70.14
81997;BME280;71500;50.806;8.774;2023-12-29T04:00:13;99179.45;;;8.51;70.05
81997;BME280;71500;50.806;8.774;2023-12-29T04:02:45;99177.70;;;8.55;70.12
81997;BME280;71500;50.806;8.774;2023-12-29T04:05:16;99176.57;;;8.58;70.16
81997;BME280;71500;50.806;8.774;2023-12-29T04:07:48;99172.39;;;8.61;70.16
81997;BME280;71500;50.806;8.774;2023-12-29T04:10:19;99169.95;;;8.62;70.20
81997;BME280;71500;50.806;8.774;2023-12-29T04:12:51;99170.96;;;8.63;70.14
81997;BME280;71500;50.806;8.774;2023-12-29T04:15:23;99173.11;;;8.63;70.10
81997;BME280;71500;50.806;8.774;2023-12-29T04:17:54;99172.35;;;8.63;70.12
81997;BME280;71500;50.806;8.774;2023-12-29T04:20:26;99168.53;;;8.63;70.15
81997;BME280;71500;50.806;8.774;2023-12-29T04:22:57;99165.78;;;8.62;70.16
81997;BME280;71500;50.806;8.774;2023-12-29T04:25:29;99163.21;;;8.60;70.33
81997;BME280;71500;50.806;8.774;2023-12-29T04:28:01;99160.33;;;8.61;70.24
81997;BME280;71500;50.806;8.774;2023-12-29T04:30:33;99159.64;;;8.65;70.15
81997;BME280;71500;50.806;8.774;2023-12-29T04:33:05;99161.61;;;8.69;70.14
81997;BME280;71500;50.806;8.774;2023-12-29T04:35:37;99154.00;;;8.72;70.17
81997;BME280;71500;50.806;8.774;2023-12-29T04:38:08;99154.23;;;8.75;70.10
81997;BME280;71500;50.806;8.774;2023-12-29T04:40:40;99158.90;;;8.78;69.99
81997;BME280;71500;50.806;8.774;2023-12-29T04:43:11;99156.10;;;8.82;69.96
81997;BME280;71500;50.806;8.774;2023-12-29T04:45:43;99161.11;;;8.83;70.06
81997;BME280;71500;50.806;8.774;2023-12-29T04:48:14;99165.55;;;8.85;69.95
81997;BME280;71500;50.806;8.774;2023-12-29T04:50:46;99169.61;;;8.85;69.90
81997;BME280;71500;50.806;8.774;2023-12-29T04:53:17;99170.11;;;8.86;69.88
81997;BME280;71500;50.806;8.774;2023-12-29T04:55:49;99171.37;;;8.86;69.85
81997;BME280;71500;50.806;8.774;2023-12-29T04:58:20;99170.73;;;8.85;69.91
81997;BME280;71500;50.806;8.774;2023-12-29T05:00:52;99175.86;;;8.85;70.02
81997;BME280;71500;50.806;8.774;2023-12-29T05:03:23;99177.98;;;8.85;70.07
81997;BME280;71500;50.806;8.774;2023-12-29T05:05:55;99174.66;;;8.84;70.00
81997;BME280;71500;50.806;8.774;2023-12-29T05:08:27;99177.12;;;8.88;70.01
81997;BME280;71500;50.806;8.774;2023-12-29T05:10:58;99174.45;;;8.90;69.97
81997;BME280;71500;50.806;8.774;2023-12-29T05:13:29;99170.91;;;8.92;70.02
81997;BME280;71500;50.806;8.774;2023-12-29T05:16:01;99169.86;;;8.94;69.97
81997;BME280;71500;50.806;8.774;2023-12-29T05:18:32;99170.92;;;8.96;70.01
81997;BME280;71500;50.806;8.774;2023-12-29T05:21:05;99173.20;;;9.00;69.93
81997;BME280;71500;50.806;8.774;2023-12-29T05:23:36;99162.73;;;8.98;69.95
81997;BME280;71500;50.806;8.774;2023-12-29T05:26:08;99154.42;;;8.98;69.96
81997;BME280;71500;50.806;8.774;2023-12-29T05:28:39;99157.45;;;8.98;69.96
81997;BME280;71500;50.806;8.774;2023-12-29T05:31:11;99159.06;;;8.98;70.01
81997;BME280;71500;50.806;8.774;2023-12-29T05:33:43;99166.86;;;8.98;70.10
81997;BME280;71500;50.806;8.774;2023-12-29T05:36:15;99165.86;;;8.97;70.05
81997;BME280;71500;50.806;8.774;2023-12-29T05:38:48;99170.56;;;8.96;69.96
81997;BME280;71500;50.806;8.774;2023-12-29T05:41:20;99173.05;;;8.96;69.99
81997;BME280;71500;50.806;8.774;2023-12-29T05:43:51;99179.05;;;9.02;69.91
81997;BME280;71500;50.806;8.774;2023-12-29T05:46:23;99176.06;;;9.03;69.95
81997;BME280;71500;50.806;8.774;2023-12-29T05:48:54;99167.34;;;9.06;69.83
81997;BME280;71500;50.806;8.774;2023-12-29T05:51:26;99165.29;;;9.09;69.95
81997;BME280;71500;50.806;8.774;2023-12-29T05:53:57;99162.80;;;9.11;69.90
81997;BME280;71500;50.806;8.774;2023-12-29T05:56:29;99163.28;;;9.13;70.01
81997;BME280;71500;50.806;8.774;2023-12-29T05:59:00;99162.61;;;9.15;69.99
81997;BME280;71500;50.806;8.774;2023-12-29T06:01:32;99169.25;;;9.16;69.82
81997;BME280;71500;50.806;8.774;2023-12-29T06:04:04;99165.89;;;9.15;69.90
81997;BME280;71500;50.806;8.774;2023-12-29T06:06:36;99172.77;;;9.16;70.00
81997;BME280;71500;50.806;8.774;2023-12-29T06:09:07;99172.20;;;9.14;69.97
81997;BME280;71500;50.806;8.774;2023-12-29T06:11:40;99173.15;;;9.14;70.09
81997;BME280;71500;50.806;8.774;2023-12-29T06:14:12;99171.30;;;9.13;70.05
81997;BME280;71500;50.806;8.774;2023-12-29T06:16:43;99171.95;;;9.12;70.15
81997;BME280;71500;50.806;8.774;2023-12-29T06:19:15;99169.73;;;9.11;70.18
81997;BME280;71500;50.806;8.774;2023-12-29T06:21:46;99178.52;;;9.11;70.11
81997;BME280;71500;50.806;8.774;2023-12-29T06:24:18;99184.75;;;9.13;70.13
81997;BME280;71500;50.806;8.774;2023-12-29T06:26:50;99185.14;;;9.14;70.21
81997;BME280;71500;50.806;8.774;2023-12-29T06:29:21;99191.94;;;9.17;70.22
81997;BME280;71500;50.806;8.774;2023-12-29T06:31:52;99187.07;;;9.20;70.22
81997;BME280;71500;50.806;8.774;2023-12-29T06:34:24;99192.06;;;9.22;70.16
81997;BME280;71500;50.806;8.774;2023-12-29T06:36:55;99198.61;;;9.23;70.22
81997;BME280;71500;50.806;8.774;2023-12-29T06:39:27;99184.52;;;9.25;70.10
81997;BME280;71500;50.806;8.774;2023-12-29T06:41:58;99183.71;;;9.26;70.19
81997;BME280;71500;50.806;8.774;2023-12-29T06:44:30;99189.75;;;9.25;70.37
81997;BME280;71500;50.806;8.774;2023-12-29T06:47:01;99189.80;;;9.25;70.28
81997;BME280;71500;50.806;8.774;2023-12-29T06:49:35;99190.20;;;9.24;70.29
81997;BME280;71500;50.806;8.774;2023-12-29T06:52:07;99193.52;;;9.23;70.47
81997;BME280;71500;50.806;8.774;2023-12-29T06:54:38;99188.19;;;9.21;70.67
81997;BME280;71500;50.806;8.774;2023-12-29T06:57:11;99187.18;;;9.21;70.53
81997;BME280;71500;50.806;8.774;2023-12-29T06:59:44;99189.41;;;9.23;70.48
81997;BME280;71500;50.806;8.774;2023-12-29T07:02:16;99193.66;;;9.25;70.42
81997;BME280;71500;50.806;8.774;2023-12-29T07:04:47;99188.55;;;9.27;70.62
81997;BME280;71500;50.806;8.774;2023-12-29T07:07:18;99186.29;;;9.28;70.72
81997;BME280;71500;50.806;8.774;2023-12-29T07:09:50;99190.58;;;9.30;70.89
81997;BME280;71500;50.806;8.774;2023-12-29T07:12:21;99195.97;;;9.31;70.95
81997;BME280;71500;50.806;8.774;2023-12-29T07:14:53;99192.64;;;9.30;70.74
81997;BME280;71500;50.806;8.774;2023-12-29T07:17:24;99192.97;;;9.29;70.89
81997;BME280;71500;50.806;8.774;2023-12-29T07:19:56;99192.15;;;9.28;70.99
81997;BME280;71500;50.806;8.774;2023-12-29T07:22:27;99200.71;;;9.26;70.94
81997;BME280;71500;50.806;8.774;2023-12-29T07:25:01;99200.20;;;9.23;70.97
81997;BME280;71500;50.806;8.774;2023-12-29T07:27:32;99199.68;;;9.21;71.02
81997;BME280;71500;50.806;8.774;2023-12-29T07:30:05;99200.08;;;9.19;71.02
81997;BME280;71500;50.806;8.774;2023-12-29T07:32:37;99195.06;;;9.20;71.09
81997;BME280;71500;50.806;8.774;2023-12-29T07:35:09;99193.87;;;9.21;71.03
81997;BME280;71500;50.806;8.774;2023-12-29T07:37:41;99195.28;;;9.21;70.92
81997;BME280;71500;50.806;8.774;2023-12-29T07:40:14;99189.21;;;9.22;70.85
81997;BME280;71500;50.806;8.774;2023-12-29T07:42:46;99191.98;;;9.22;70.84
81997;BME280;71500;50.806;8.774;2023-12-29T07:45:21;99193.73;;;9.23;70.99
81997;BME280;71500;50.806;8.774;2023-12-29T07:47:52;99194.34;;;9.20;71.11
81997;BME280;71500;50.806;8.774;2023-12-29T07:50:24;99203.83;;;9.23;70.89
81997;BME280;71500;50.806;8.774;2023-12-29T07:52:56;99202.67;;;9.22;70.94
81997;BME280;71500;50.806;8.774;2023-12-29T07:55:27;99200.09;;;9.21;70.80
81997;BME280;71500;50.806;8.774;2023-12-29T07:57:59;99203.74;;;9.20;70.93
81997;BME280;71500;50.806;8.774;2023-12-29T08:00:30;99201.28;;;9.20;71.00
81997;BME280;71500;50.806;8.774;2023-12-29T08:03:03;99199.10;;;9.22;71.01
81997;BME280;71500;50.806;8.774;2023-12-29T08:05:36;99201.77;;;9.24;71.11
81997;BME280;71500;50.806;8.774;2023-12-29T08:08:08;99199.14;;;9.25;71.04
81997;BME280;71500;50.806;8.774;2023-12-29T08:10:40;99200.42;;;9.27;71.17
81997;BME280;71500;50.806;8.774;2023-12-29T08:13:11;99200.63;;;9.28;71.15
81997;BME280;71500;50.806;8.774;2023-12-29T08:15:43;99198.55;;;9.30;71.31
81997;BME280;71500;50.806;8.774;2023-12-29T08:18:14;99194.90;;;9.31;71.23
81997;BME280;71500;50.806;8.774;2023-12-29T08:20:46;99196.13;;;9.31;71.35
81997;BME280;71500;50.806;8.774;2023-12-29T08:23:18;99197.73;;;9.31;71.53
81997;BME280;71500;50.806;8.774;2023-12-29T08:25:49;99197.98;;;9.30;71.44
81997;BME280;71500;50.806;8.774;2023-12-29T08:28:24;99192.15;;;9.28;71.62
81997;BME280;71500;50.806;8.774;2023-12-29T08:30:55;99188.03;;;9.29;71.78
81997;BME280;71500;50.806;8.774;2023-12-29T08:33:27;99189.00;;;9.31;71.74
81997;BME280;71500;50.806;8.774;2023-12-29T08:35:59;99193.73;;;9.32;71.74
81997;BME280;71500;50.806;8.774;2023-12-29T08:38:31;99198.06;;;9.33;71.75
81997;BME280;71500;50.806;8.774;2023-12-29T08:41:03;99204.02;;;9.34;71.90
81997;BME280;71500;50.806;8.774;2023-12-29T08:43:34;99204.84;;;9.34;71.94
81997;BME280;71500;50.806;8.774;2023-12-29T08:46:06;99207.73;;;9.34;71.92
81997;BME280;71500;50.806;8.774;2023-12-29T08:48:38;99204.52;;;9.34;72.15
81997;BME280;71500;50.806;8.774;2023-12-29T08:51:09;99205.67;;;9.33;72.15
81997;BME280;71500;50.806;8.774;2023-12-29T08:53:41;99196.09;;;9.32;72.34
81997;BME280;71500;50.806;8.774;2023-12-29T08:56:12;99188.59;;;9.34;72.33
81997;BME280;71500;50.806;8.774;2023-12-29T08:58:44;99186.55;;;9.35;72.55
81997;BME280;71500;50.806;8.774;2023-12-29T09:01:17;99190.55;;;9.36;72.59
81997;BME280;71500;50.806;8.774;2023-12-29T09:03:49;99183.11;;;9.36;72.61
81997;BME280;71500;50.806;8.774;2023-12-29T09:06:21;99177.54;;;9.36;72.84
81997;BME280;71500;50.806;8.774;2023-12-29T09:08:52;99174.59;;;9.36;72.69
81997;BME280;71500;50.806;8.774;2023-12-29T09:11:24;99167.75;;;9.35;72.87
81997;BME280;71500;50.806;8.774;2023-12-29T09:13:56;99165.71;;;9.34;72.84
81997;BME280;71500;50.806;8.774;2023-12-29T09:16:28;99163.97;;;9.34;72.92
81997;BME280;71500;50.806;8.774;2023-12-29T09:18:59;99162.63;;;9.33;72.81
81997;BME280;71500;50.806;8.774;2023-12-29T09:21:33;99163.93;;;9.38;72.69
81997;BME280;71500;50.806;8.774;2023-12-29T09:24:05;99157.94;;;9.39;72.71
81997;BME280;71500;50.806;8.774;2023-12-29T09:26:37;99158.86;;;9.43;72.53
81997;BME280;71500;50.806;8.774;2023-12-29T09:29:08;99156.84;;;9.46;72.45
81997;BME280;71500;50.806;8.774;2023-12-29T09:31:40;99153.52;;;9.49;72.25
81997;BME280;71500;50.806;8.774;2023-12-29T09:34:11;99154.13;;;9.52;72.30
81997;BME280;71500;50.806;8.774;2023-12-29T09:36:43;99157.27;;;9.55;72.00
81997;BME280;71500;50.806;8.774;2023-12-29T09:39:14;99152.65;;;9.56;71.86
81997;BME280;71500;50.806;8.774;2023-12-29T09:41:47;99148.95;;;9.58;71.88
81997;BME280;71500;50.806;8.774;2023-12-29T09:44:22;99149.64;;;9.60;71.61
81997;BME280;71500;50.806;8.774;2023-12-29T09:46:54;99153.00;;;9.60;71.59
81997;BME280;71500;50.806;8.774;2023-12-29T09:49:26;99156.48;;;9.61;71.50
81997;BME280;71500;50.806;8.774;2023-12-29T09:51:59;99148.04;;;9.62;71.51
81997;BME280;71500;50.806;8.774;2023-12-29T09:54:32;99154.65;;;9.67;71.25
81997;BME280;71500;50.806;8.774;2023-12-29T09:57:05;99160.43;;;9.72;71.22
81997;BME280;71500;50.806;8.774;2023-12-29T09:59:37;99165.56;;;9.77;71.17
81997;BME280;71500;50.806;8.774;2023-12-29T10:02:14;99156.98;;;9.78;71.07
81997;BME280;71500;50.806;8.774;2023-12-29T10:04:46;99152.61;;;9.81;70.95
81997;BME280;71500;50.806;8.774;2023-12-29T10:07:22;99150.88;;;9.84;70.95
81997;BME280;71500;50.806;8.774;2023-12-29T10:09:57;99158.92;;;9.87;70.83
81997;BME280;71500;50.806;8.774;2023-12-29T10:12:30;99154.91;;;9.86;71.00
81997;BME280;71500;50.806;8.774;2023-12-29T10:15:10;99160.52;;;9.87;70.97
81997;BME280;71500;50.806;8.774;2023-12-29T10:17:51;99157.80;;;9.91;71.09
81997;BME280;71500;50.806;8.774;2023-12-29T10:20:30;99161.95;;;9.94;70.99
81997;BME280;71500;50.806;8.774;2023-12-29T10:23:10;99164.70;;;9.97;70.91
81997;BME280;71500;50.806;8.774;2023-12-29T10:25:43;99162.90;;;9.99;70.81
81997;BME280;71500;50.806;8.774;2023-12-29T10:28:17;99159.77;;;10.02;70.76
81997;BME280;71500;50.806;8.774;2023-12-29T10:30:50;99165.29;;;10.04;70.94
81997;BME280;71500;50.806;8.774;2023-12-29T10:33:22;99169.52;;;10.06;71.03
81997;BME280;71500;50.806;8.774;2023-12-29T10:36:02;99162.07;;;10.04;71.04
81997;BME280;71500;50.806;8.774;2023-12-29T10:38:40;99163.38;;;10.03;71.04
81997;BME280;71500;50.806;8.774;2023-12-29T10:41:14;99166.52;;;10.02;71.01
81997;BME280;71500;50.806;8.774;2023-12-29T10:43:47;99167.61;;;10.00;71.16
81997;BME280;71500;50.806;8.774;2023-12-29T10:46:22;99171.11;;;10.04;71.13
81997;BME280;71500;50.806;8.774;2023-12-29T10:49:08;99169.09;;;10.04;71.16
81997;BME280;71500;50.806;8.774;2023-12-29T10:51:40;99168.23;;;10.04;71.32
81997;BME280;71500;50.806;8.774;2023-12-29T10:54:20;99170.44;;;10.05;71.22
81997;BME280;71500;50.806;8.774;2023-12-29T10:57:03;99165.45;;;10.06;71.31
81997;BME280;71500;50.806;8.774;2023-12-29T10:59:34;99167.73;;;10.06;71.53
81997;BME280;71500;50.806;8.774;2023-12-29T11:02:06;99169.38;;;10.05;71.58
81997;BME280;71500;50.806;8.774;2023-12-29T11:04:37;99165.06;;;10.04;71.70
81997;BME280;71500;50.806;8.774;2023-12-29T11:07:12;99167.14;;;10.03;71.72
81997;BME280;71500;50.806;8.774;2023-12-29T11:09:45;99168.88;;;10.01;72.00
81997;BME280;71500;50.806;8.774;2023-12-29T11:12:17;99164.05;;;10.03;71.82
81997;BME280;71500;50.806;8.774;2023-12-29T11:14:49;99159.48;;;10.03;72.07
81997;BME280;71500;50.806;8.774;2023-12-29T11:17:22;99158.86;;;10.04;72.11
81997;BME280;71500;50.806;8.774;2023-12-29T11:19:55;99161.45;;;10.05;72.09
81997;BME280;71500;50.806;8.774;2023-12-29T11:22:29;99170.98;;;10.07;72.13
81997;BME280;71500;50.806;8.774;2023-12-29T11:25:01;99160.74;;;10.08;72.18
81997;BME280;71500;50.806;8.774;2023-12-29T11:27:33;99156.61;;;10.09;72.09
81997;BME280;71500;50.806;8.774;2023-12-29T11:30:06;99151.23;;;10.10;72.12
81997;BME280;71500;50.806;8.774;2023-12-29T11:32:45;99147.50;;;10.10;72.07
81997;BME280;71500;50.806;8.774;2023-12-29T11:35:21;99148.21;;;10.10;71.93
81997;BME280;71500;50.806;8.774;2023-12-29T11:38:08;99144.50;;;10.11;71.78
81997;BME280;71500;50.806;8.774;2023-12-29T11:40:47;99141.31;;;10.15;71.43
81997;BME280;71500;50.806;8.774;2023-12-29T11:43:21;99142.36;;;10.17;71.40
81997;BME280;71500;50.806;8.774;2023-12-29T11:45:52;99141.70;;;10.18;71.50
81997;BME280;71500;50.806;8.774;2023-12-29T11:51:34;99134.69;;;10.23;71.16
81997;BME280;71500;50.806;8.774;2023-12-29T11:54:07;99131.54;;;10.24;71.18
81997;BME280;71500;50.806;8.774;2023-12-29T11:56:40;99133.00;;;10.24;71.07
81997;BME280;71500;50.806;8.774;2023-12-29T11:59:18;99130.11;;;10.24;71.25
81997;BME280;71500;50.806;8.774;2023-12-29T12:01:50;99131.11;;;10.23;71.10
81997;BME280;71500;50.806;8.774;2023-12-29T12:04:39;99126.53;;;10.23;71.00
81997;BME280;71500;50.806;8.774;2023-12-29T12:10:29;99125.83;;;10.26;71.25
81997;BME280;71500;50.806;8.774;2023-12-29T12:13:03;99116.46;;;10.26;71.30
81997;BME280;71500;50.806;8.774;2023-12-29T12:15:36;99120.17;;;10.26;71.64
81997;BME280;71500;50.806;8.774;2023-12-29T12:18:12;99127.73;;;10.25;71.90
81997;BME280;71500;50.806;8.774;2023-12-29T12:20:44;99127.07;;;10.23;72.10
81997;BME280;71500;50.806;8.774;2023-12-29T12:23:21;99125.97;;;10.19;72.12
81997;BME280;71500;50.806;8.774;2023-12-29T12:25:59;99116.58;;;10.16;72.33
81997;BME280;71500;50.806;8.774;2023-12-29T12:28:33;99118.55;;;10.14;72.56
81997;BME280;71500;50.806;8.774;2023-12-29T12:31:08;99114.65;;;10.15;72.23
81997;BME280;71500;50.806;8.774;2023-12-29T12:33:39;99114.38;;;10.16;72.29
81997;BME280;71500;50.806;8.774;2023-12-29T12:36:11;99108.25;;;10.17;72.18
81997;BME280;71500;50.806;8.774;2023-12-29T12:38:52;99105.52;;;10.18;72.09
81997;BME280;71500;50.806;8.774;2023-12-29T12:41:24;99110.94;;;10.19;71.97
81997;BME280;71500;50.806;8.774;2023-12-29T12:44:01;99106.23;;;10.20;72.00
81997;BME280;71500;50.806;8.774;2023-12-29T12:46:51;99104.42;;;10.20;71.78
81997;BME280;71500;50.806;8.774;2023-12-29T12:49:23;99105.11;;;10.21;71.50
81997;BME280;71500;50.806;8.774;2023-12-29T12:51:55;99098.02;;;10.21;71.47
81997;BME280;71500;50.806;8.774;2023-12-29T12:54:27;99098.91;;;10.20;71.53
81997;BME280;71500;50.806;8.774;2023-12-29T12:56:59;99101.54;;;10.21;71.43
81997;BME280;71500;50.806;8.774;2023-12-29T12:59:31;99093.39;;;10.21;71.20
81997;BME280;71500;50.806;8.774;2023-12-29T13:02:05;99095.98;;;10.23;70.99
81997;BME280;71500;50.806;8.774;2023-12-29T13:04:40;99087.99;;;10.27;70.98
81997;BME280;71500;50.806;8.774;2023-12-29T13:07:16;99087.66;;;10.28;70.76
81997;BME280;71500;50.806;8.774;2023-12-29T13:09:48;99084.35;;;10.31;70.62
81997;BME280;71500;50.806;8.774;2023-12-29T13:12:22;99081.77;;;10.32;70.63
81997;BME280;71500;50.806;8.774;2023-12-29T13:14:54;99083.91;;;10.34;70.49
81997;BME280;71500;50.806;8.774;2023-12-29T13:17:35;99084.33;;;10.35;70.40
81997;BME280;71500;50.806;8.774;2023-12-29T13:20:09;99082.44;;;10.36;70.34
81997;BME280;71500;50.806;8.774;2023-12-29T13:22:41;99077.34;;;10.39;70.16
81997;BME280;71500;50.806;8.774;2023-12-29T13:25:15;99080.31;;;10.36;70.05
81997;BME280;71500;50.806;8.774;2023-12-29T13:27:50;99076.73;;;10.35;70.12
81997;BME280;71500;50.806;8.774;2023-12-29T13:30:23;99073.99;;;10.34;70.22
81997;BME280;71500;50.806;8.774;2023-12-29T13:32:55;99074.70;;;10.37;70.18
81997;BME280;71500;50.806;8.774;2023-12-29T13:35:33;99067.62;;;10.39;70.22
81997;BME280;71500;50.806;8.774;2023-12-29T13:38:10;99062.06;;;10.41;70.02
81997;BME280;71500;50.806;8.774;2023-12-29T13:40:45;99071.86;;;10.42;69.90
81997;BME280;71500;50.806;8.774;2023-12-29T13:43:18;99066.38;;;10.44;69.86